PWSweather.com
Personal Weather Stations
Station Observations
WISCHPK61
Green Bay Schmitt Park, Green Bay, WI 54311

Green Bay Schmitt ParkGreen Bay, WI 54311

Lat: 44.514277, Lon: -87.935067

Elevation: 735

Station Type: Acu Rite Pro Weather Center model 02032C

http://greenbayweathercam.com

High Low Average
Temperature 37.5°F3.1°C 25.0°F-3.9°C 30.8°F-0.7°C
Dew Point 37.2°F2.9°C 24.8°F-4.0°C 30.4°F-0.9°C
Winds 3.5 mph 5.6 kmh Calm Calm Calm SCalm S
Wind Gusts 3.5 mph5.6 kmh -- --
Humidity 99% 83% 98%
Pressure 29.59 in1002.0 mb 29.36 in994.2 mb -
Precipitation 0.00 in0.0 mm - -
Hour Temp Dew Point Humidity Winds Wind Gusts Pressure Precip Precip Rate Daily Precip Total
12:00 AM 30.7°F-0.7°C 30.5°F-0.8°C 99% Calm Calm -- 29.36 in994.2 mb - 0.00 in0.0 mm 0.48 in12.2 mm
01:00 AM 30.0°F-1.1°C 29.8°F-1.2°C 99% Calm Calm -- 29.36 in994.2 mb - 0.00 in0.0 mm 0.00 in0.0 mm
02:00 AM 31.1°F-0.5°C 30.9°F-0.6°C 99% Calm Calm -- 29.39 in995.3 mb - 0.00 in0.0 mm 0.00 in0.0 mm
03:00 AM 29.7°F-1.3°C 29.5°F-1.4°C 99% Calm Calm -- 29.42 in996.3 mb - 0.00 in0.0 mm 0.00 in0.0 mm
04:00 AM 28.4°F-2.0°C 28.2°F-2.1°C 99% Calm Calm -- 29.45 in997.3 mb - 0.00 in0.0 mm 0.00 in0.0 mm
05:00 AM 26.4°F-3.1°C 26.2°F-3.2°C 99% Calm Calm -- 29.47 in998.0 mb - 0.00 in0.0 mm 0.00 in0.0 mm
06:00 AM 25.5°F-3.6°C 25.3°F-3.7°C 99% Calm Calm -- 29.48 in998.3 mb - 0.00 in0.0 mm 0.00 in0.0 mm
07:00 AM 25.2°F-3.8°C 25.0°F-3.9°C 99% Calm Calm -- 29.50 in999.0 mb - 0.00 in0.0 mm 0.00 in0.0 mm
08:00 AM 25.0°F-3.9°C 24.8°F-4.0°C 99% Calm Calm -- 29.53 in1000.0 mb - 0.00 in0.0 mm 0.00 in0.0 mm
09:00 AM 26.8°F-2.9°C 26.6°F-3.0°C 99% Calm Calm -- 29.55 in1000.7 mb - 0.00 in0.0 mm 0.00 in0.0 mm
10:00 AM 29.2°F-1.6°C 29.0°F-1.7°C 99% Calm Calm -- 29.57 in1001.4 mb - 0.00 in0.0 mm 0.00 in0.0 mm
11:00 AM 33.1°F0.6°C 32.8°F0.4°C 99% Calm Calm -- 29.59 in1002.0 mb - 0.00 in0.0 mm 0.00 in0.0 mm
12:00 PM 36.3°F2.4°C 36.0°F2.2°C 99% Calm Calm -- 29.59 in1002.0 mb - 0.00 in0.0 mm 0.00 in0.0 mm
01:00 PM 37.5°F3.1°C 37.2°F2.9°C 99% 1.2 mph S1.9 kmh S 1.2 mph1.9 kmh 29.58 in1001.7 mb - 0.00 in0.0 mm 0.00 in0.0 mm
02:00 PM 36.3°F2.4°C 36.1°F2.3°C 99% 1.2 mph S1.9 kmh S 1.2 mph1.9 kmh 29.58 in1001.7 mb - 0.00 in0.0 mm 0.00 in0.0 mm
03:00 PM 35.4°F1.9°C 35.1°F1.7°C 99% Calm Calm -- 29.57 in1001.4 mb - 0.00 in0.0 mm 0.00 in0.0 mm
04:00 PM 33.5°F0.8°C 33.2°F0.7°C 99% Calm Calm -- 29.58 in1001.7 mb - 0.00 in0.0 mm 0.00 in0.0 mm
05:00 PM 31.3°F-0.4°C 31.1°F-0.5°C 99% Calm Calm -- 29.59 in1002.0 mb - 0.00 in0.0 mm 0.00 in0.0 mm
06:00 PM 30.0°F-1.1°C 29.8°F-1.2°C 99% Calm Calm -- 29.55 in1000.7 mb - 0.00 in0.0 mm 0.00 in0.0 mm
07:00 PM 29.7°F-1.3°C 29.5°F-1.4°C 99% Calm Calm -- 29.53 in1000.0 mb - 0.00 in0.0 mm 0.00 in0.0 mm
08:00 PM 29.8°F-1.2°C 29.6°F-1.3°C 99% Calm Calm -- 29.53 in1000.0 mb - 0.00 in0.0 mm 0.00 in0.0 mm
09:00 PM 30.7°F-0.7°C 30.5°F-0.8°C 99% Calm Calm -- 29.48 in998.3 mb - 0.00 in0.0 mm 0.00 in0.0 mm
10:00 PM 32.2°F0.1°C 32.0°F0.0°C 99% Calm Calm -- 29.46 in997.6 mb - 0.00 in0.0 mm 0.00 in0.0 mm
11:00 PM 32.9°F0.5°C 28.3°F-2.1°C 83% 3.5 mph S5.6 kmh S 3.5 mph5.6 kmh 29.43 in996.6 mb - 0.00 in0.0 mm 0.00 in0.0 mm